sensor_id;sensor_type;location;lat;lon;timestamp;pressure;altitude;pressure_sealevel;temperature;humidity
34124;BME280;13153;52.316;21.166;2023-02-14T00:00:18;101865.84;;;10.24;55.29
34124;BME280;13153;52.316;21.166;2023-02-14T00:02:47;101875.53;;;10.25;55.20
34124;BME280;13153;52.316;21.166;2023-02-14T00:05:14;101871.91;;;10.23;54.99
34124;BME280;13153;52.316;21.166;2023-02-14T00:07:40;101871.91;;;10.23;55.04
34124;BME280;13153;52.316;21.166;2023-02-14T00:10:08;101884.63;;;10.15;54.51
34124;BME280;13153;52.316;21.166;2023-02-14T00:12:34;101881.09;;;10.15;54.98
34124;BME280;13153;52.316;21.166;2023-02-14T00:15:00;101878.53;;;10.16;54.81
34124;BME280;13153;52.316;21.166;2023-02-14T00:17:45;101890.78;;;10.16;55.23
34124;BME280;13153;52.316;21.166;2023-02-14T00:20:11;101895.97;;;10.14;55.27
34124;BME280;13153;52.316;21.166;2023-02-14T00:22:36;101893.34;;;10.14;54.80
34124;BME280;13153;52.316;21.166;2023-02-14T00:25:02;101885.38;;;10.13;55.15
34124;BME280;13153;52.316;21.166;2023-02-14T00:27:29;101886.44;;;10.16;54.99
34124;BME280;13153;52.316;21.166;2023-02-14T00:29:55;101891.53;;;10.13;54.65
34124;BME280;13153;52.316;21.166;2023-02-14T00:32:23;101888.00;;;10.13;54.78
34124;BME280;13153;52.316;21.166;2023-02-14T00:34:48;101885.06;;;10.07;55.36
34124;BME280;13153;52.316;21.166;2023-02-14T00:37:14;101888.81;;;10.12;55.38
34124;BME280;13153;52.316;21.166;2023-02-14T00:39:40;101885.47;;;10.14;54.73
34124;BME280;13153;52.316;21.166;2023-02-14T00:42:05;101887.03;;;10.11;54.86
34124;BME280;13153;52.316;21.166;2023-02-14T00:44:31;101890.63;;;10.13;54.76
34124;BME280;13153;52.316;21.166;2023-02-14T00:46:57;101888.00;;;10.13;54.82
34124;BME280;13153;52.316;21.166;2023-02-14T00:49:23;101895.91;;;10.13;54.84
34124;BME280;13153;52.316;21.166;2023-02-14T00:51:48;101904.69;;;10.13;54.77
34124;BME280;13153;52.316;21.166;2023-02-14T00:54:14;101899.25;;;10.10;55.20
34124;BME280;13153;52.316;21.166;2023-02-14T00:56:40;101910.69;;;10.11;55.32
34124;BME280;13153;52.316;21.166;2023-02-14T00:59:06;101912.56;;;10.13;55.39
34124;BME280;13153;52.316;21.166;2023-02-14T01:01:31;101903.53;;;10.08;55.01
34124;BME280;13153;52.316;21.166;2023-02-14T01:03:57;101902.81;;;10.11;55.38
34124;BME280;13153;52.316;21.166;2023-02-14T01:06:24;101900.66;;;10.04;55.10
34124;BME280;13153;52.316;21.166;2023-02-14T01:08:50;101903.13;;;10.01;55.31
34124;BME280;13153;52.316;21.166;2023-02-14T01:11:19;101901.16;;;9.97;55.13
34124;BME280;13153;52.316;21.166;2023-02-14T01:13:47;101905.44;;;9.94;55.70
34124;BME280;13153;52.316;21.166;2023-02-14T01:16:18;101897.56;;;9.94;55.94
34124;BME280;13153;52.316;21.166;2023-02-14T01:18:45;101900.84;;;9.90;55.67
34124;BME280;13153;52.316;21.166;2023-02-14T01:21:21;101901.91;;;9.94;55.78
34124;BME280;13153;52.316;21.166;2023-02-14T01:23:50;101892.38;;;9.96;55.51
34124;BME280;13153;52.316;21.166;2023-02-14T01:26:17;101887.13;;;9.96;55.66
34124;BME280;13153;52.316;21.166;2023-02-14T01:28:44;101888.69;;;9.92;56.16
34124;BME280;13153;52.316;21.166;2023-02-14T01:31:21;101897.31;;;9.90;55.64
34124;BME280;13153;52.316;21.166;2023-02-14T01:33:49;101900.75;;;9.89;55.97
34124;BME280;13153;52.316;21.166;2023-02-14T01:38:55;101893.84;;;9.91;56.18
34124;BME280;13153;52.316;21.166;2023-02-14T01:41:24;101899.84;;;9.88;56.18
34124;BME280;13153;52.316;21.166;2023-02-14T01:46:45;101904.94;;;9.85;56.37
34124;BME280;13153;52.316;21.166;2023-02-14T01:49:21;101901.50;;;9.86;56.42
34124;BME280;13153;52.316;21.166;2023-02-14T01:52:05;101900.66;;;9.87;56.51
34124;BME280;13153;52.316;21.166;2023-02-14T01:54:37;101907.41;;;9.82;56.53
34124;BME280;13153;52.316;21.166;2023-02-14T01:57:09;101894.25;;;9.82;56.54
34124;BME280;13153;52.316;21.166;2023-02-14T01:59:42;101904.72;;;9.81;56.83
34124;BME280;13153;52.316;21.166;2023-02-14T02:02:11;101909.09;;;9.80;56.77
34124;BME280;13153;52.316;21.166;2023-02-14T02:04:43;101909.16;;;9.82;56.42
34124;BME280;13153;52.316;21.166;2023-02-14T02:07:16;101917.06;;;9.82;56.58
34124;BME280;13153;52.316;21.166;2023-02-14T02:09:50;101904.66;;;9.79;56.95
34124;BME280;13153;52.316;21.166;2023-02-14T02:12:18;101911.38;;;9.74;56.93
34124;BME280;13153;52.316;21.166;2023-02-14T02:14:45;101904.47;;;9.76;56.95
34124;BME280;13153;52.316;21.166;2023-02-14T02:17:36;101902.59;;;9.74;56.73
34124;BME280;13153;52.316;21.166;2023-02-14T02:32:04;101907.84;;;9.74;57.31
34124;BME280;13153;52.316;21.166;2023-02-14T02:41:03;101906.94;;;9.73;56.84
34124;BME280;13153;52.316;21.166;2023-02-14T02:44:20;101905.94;;;9.71;57.32
34124;BME280;13153;52.316;21.166;2023-02-14T02:47:03;101907.59;;;9.69;57.47
34124;BME280;13153;52.316;21.166;2023-02-14T02:55:48;101920.91;;;9.72;57.37
34124;BME280;13153;52.316;21.166;2023-02-14T02:58:56;101919.00;;;9.70;57.45
34124;BME280;13153;52.316;21.166;2023-02-14T03:01:30;101926.81;;;9.68;57.19
34124;BME280;13153;52.316;21.166;2023-02-14T03:04:02;101916.47;;;9.71;57.10
34124;BME280;13153;52.316;21.166;2023-02-14T03:06:50;101929.59;;;9.71;57.16
34124;BME280;13153;52.316;21.166;2023-02-14T03:24:56;101938.47;;;9.73;57.08
34124;BME280;13153;52.316;21.166;2023-02-14T03:30:02;101926.72;;;9.67;57.04
34124;BME280;13153;52.316;21.166;2023-02-14T03:32:39;101930.09;;;9.64;57.11
34124;BME280;13153;52.316;21.166;2023-02-14T03:35:19;101940.44;;;9.61;56.66
34124;BME280;13153;52.316;21.166;2023-02-14T03:38:21;101943.06;;;9.61;56.95
34124;BME280;13153;52.316;21.166;2023-02-14T03:41:13;101935.91;;;9.58;57.32
34124;BME280;13153;52.316;21.166;2023-02-14T03:44:11;101946.25;;;9.55;57.16
34124;BME280;13153;52.316;21.166;2023-02-14T03:46:46;101941.81;;;9.54;57.40
34124;BME280;13153;52.316;21.166;2023-02-14T03:49:18;101945.19;;;9.52;57.26
34124;BME280;13153;52.316;21.166;2023-02-14T03:51:49;101945.19;;;9.52;57.15
34124;BME280;13153;52.316;21.166;2023-02-14T03:54:20;101951.00;;;9.46;57.02
34124;BME280;13153;52.316;21.166;2023-02-14T03:57:00;101946.56;;;9.45;57.22
34124;BME280;13153;52.316;21.166;2023-02-14T03:59:29;101947.38;;;9.44;57.50
34124;BME280;13153;52.316;21.166;2023-02-14T04:02:33;101948.28;;;9.45;57.15
34124;BME280;13153;52.316;21.166;2023-02-14T04:05:03;101943.03;;;9.45;57.48
34124;BME280;13153;52.316;21.166;2023-02-14T04:07:52;101941.94;;;9.41;57.51
34124;BME280;13153;52.316;21.166;2023-02-14T04:10:19;101942.69;;;9.39;57.04
34124;BME280;13153;52.316;21.166;2023-02-14T04:12:46;101949.81;;;9.41;57.73
34124;BME280;13153;52.316;21.166;2023-02-14T04:15:13;101939.41;;;9.43;57.75
34124;BME280;13153;52.316;21.166;2023-02-14T04:17:40;101948.09;;;9.42;57.16
34124;BME280;13153;52.316;21.166;2023-02-14T04:20:25;101943.41;;;9.36;56.91
34124;BME280;13153;52.316;21.166;2023-02-14T04:22:51;101951.19;;;9.35;57.92
34124;BME280;13153;52.316;21.166;2023-02-14T04:25:19;101954.47;;;9.31;57.69
34124;BME280;13153;52.316;21.166;2023-02-14T04:27:45;101951.69;;;9.27;57.78
34124;BME280;13153;52.316;21.166;2023-02-14T04:30:12;101963.00;;;9.26;57.26
34124;BME280;13153;52.316;21.166;2023-02-14T04:32:39;101955.72;;;9.21;58.10
34124;BME280;13153;52.316;21.166;2023-02-14T04:35:06;101954.97;;;9.23;57.66
34124;BME280;13153;52.316;21.166;2023-02-14T04:37:32;101959.56;;;9.27;57.97
34124;BME280;13153;52.316;21.166;2023-02-14T04:39:58;101960.47;;;9.28;58.40
34124;BME280;13153;52.316;21.166;2023-02-14T04:42:24;101967.59;;;9.31;58.21
34124;BME280;13153;52.316;21.166;2023-02-14T04:44:50;101972.22;;;9.35;58.29
34124;BME280;13153;52.316;21.166;2023-02-14T04:47:16;101972.41;;;9.38;57.76
34124;BME280;13153;52.316;21.166;2023-02-14T04:49:42;101972.41;;;9.38;57.38
34124;BME280;13153;52.316;21.166;2023-02-14T04:52:08;101967.13;;;9.38;58.08
34124;BME280;13153;52.316;21.166;2023-02-14T04:54:34;101974.13;;;9.37;57.79
34124;BME280;13153;52.316;21.166;2023-02-14T04:57:00;101965.63;;;9.26;57.86
34124;BME280;13153;52.316;21.166;2023-02-14T04:59:25;101969.88;;;9.24;57.74
34124;BME280;13153;52.316;21.166;2023-02-14T05:01:52;101973.41;;;9.25;58.40
34124;BME280;13153;52.316;21.166;2023-02-14T05:04:18;101978.75;;;9.26;57.94
34124;BME280;13153;52.316;21.166;2023-02-14T05:06:44;101979.84;;;9.30;58.19
34124;BME280;13153;52.316;21.166;2023-02-14T05:09:09;101983.38;;;9.31;58.06
34124;BME280;13153;52.316;21.166;2023-02-14T05:11:35;101986.09;;;9.32;57.90
34124;BME280;13153;52.316;21.166;2023-02-14T05:14:01;101979.03;;;9.31;58.67
34124;BME280;13153;52.316;21.166;2023-02-14T05:16:27;101983.47;;;9.32;58.22
34124;BME280;13153;52.316;21.166;2023-02-14T05:18:53;101981.75;;;9.33;58.37
34124;BME280;13153;52.316;21.166;2023-02-14T05:21:19;101986.81;;;9.30;58.84
34124;BME280;13153;52.316;21.166;2023-02-14T05:23:45;101992.25;;;9.33;58.18
34124;BME280;13153;52.316;21.166;2023-02-14T05:26:11;102000.13;;;9.33;58.55
34124;BME280;13153;52.316;21.166;2023-02-14T05:28:37;101992.06;;;9.30;57.74
34124;BME280;13153;52.316;21.166;2023-02-14T05:31:06;102000.44;;;9.22;57.87
34124;BME280;13153;52.316;21.166;2023-02-14T05:33:32;101993.53;;;9.24;58.39
34124;BME280;13153;52.316;21.166;2023-02-14T05:35:59;101997.16;;;9.26;57.88
34124;BME280;13153;52.316;21.166;2023-02-14T05:38:29;102001.34;;;9.23;58.13
34124;BME280;13153;52.316;21.166;2023-02-14T05:40:55;101988.13;;;9.21;58.61
34124;BME280;13153;52.316;21.166;2023-02-14T05:43:21;101990.50;;;9.17;58.75
34124;BME280;13153;52.316;21.166;2023-02-14T05:45:47;101992.22;;;9.16;58.70
34124;BME280;13153;52.316;21.166;2023-02-14T05:48:13;101990.41;;;9.15;58.54
34124;BME280;13153;52.316;21.166;2023-02-14T05:50:39;101982.53;;;9.15;59.01
34124;BME280;13153;52.316;21.166;2023-02-14T05:53:08;101985.16;;;9.15;58.39
34124;BME280;13153;52.316;21.166;2023-02-14T05:55:34;101989.50;;;9.15;58.80
34124;BME280;13153;52.316;21.166;2023-02-14T05:58:00;101995.75;;;9.17;58.85
34124;BME280;13153;52.316;21.166;2023-02-14T06:00:26;101987.94;;;9.18;58.49
34124;BME280;13153;52.316;21.166;2023-02-14T06:02:51;102001.25;;;9.21;58.27
34124;BME280;13153;52.316;21.166;2023-02-14T06:05:17;102007.31;;;9.20;58.30
34124;BME280;13153;52.316;21.166;2023-02-14T06:07:47;102015.22;;;9.20;58.08
34124;BME280;13153;52.316;21.166;2023-02-14T06:10:20;102016.84;;;9.18;58.68
34124;BME280;13153;52.316;21.166;2023-02-14T06:12:48;102018.66;;;9.19;58.77
34124;BME280;13153;52.316;21.166;2023-02-14T06:15:15;102019.47;;;9.18;58.49
34124;BME280;13153;52.316;21.166;2023-02-14T06:17:41;102027.34;;;9.18;58.84
34124;BME280;13153;52.316;21.166;2023-02-14T06:20:08;102028.25;;;9.19;58.62
34124;BME280;13153;52.316;21.166;2023-02-14T06:22:38;102017.03;;;9.21;58.64
34124;BME280;13153;52.316;21.166;2023-02-14T06:25:05;102021.81;;;9.14;58.49
34124;BME280;13153;52.316;21.166;2023-02-14T06:27:31;102027.97;;;9.14;58.70
34124;BME280;13153;52.316;21.166;2023-02-14T06:29:58;102020.09;;;9.14;58.41
34124;BME280;13153;52.316;21.166;2023-02-14T06:32:23;102027.44;;;9.20;58.46
34124;BME280;13153;52.316;21.166;2023-02-14T06:34:49;102012.59;;;9.20;58.94
34124;BME280;13153;52.316;21.166;2023-02-14T06:37:15;102015.94;;;9.18;58.76
34124;BME280;13153;52.316;21.166;2023-02-14T06:39:41;102024.81;;;9.20;58.69
34124;BME280;13153;52.316;21.166;2023-02-14T06:42:07;102031.78;;;9.19;58.03
34124;BME280;13153;52.316;21.166;2023-02-14T06:44:33;102022.09;;;9.18;58.59
34124;BME280;13153;52.316;21.166;2023-02-14T06:46:58;102023.91;;;9.19;58.69
34124;BME280;13153;52.316;21.166;2023-02-14T06:49:24;102025.63;;;9.19;58.62
34124;BME280;13153;52.316;21.166;2023-02-14T06:51:50;102030.16;;;9.21;58.61
34124;BME280;13153;52.316;21.166;2023-02-14T06:54:16;102021.28;;;9.19;58.15
34124;BME280;13153;52.316;21.166;2023-02-14T06:56:41;102022.91;;;9.17;58.15
34124;BME280;13153;52.316;21.166;2023-02-14T06:59:07;102025.53;;;9.17;58.32
34124;BME280;13153;52.316;21.166;2023-02-14T07:01:33;102028.34;;;9.20;58.85
34124;BME280;13153;52.316;21.166;2023-02-14T07:03:59;102032.78;;;9.21;58.27
34124;BME280;13153;52.316;21.166;2023-02-14T07:06:25;102034.41;;;9.19;58.54
34124;BME280;13153;52.316;21.166;2023-02-14T07:08:50;102033.50;;;9.19;58.29
34124;BME280;13153;52.316;21.166;2023-02-14T07:11:16;102039.47;;;9.16;58.14
34124;BME280;13153;52.316;21.166;2023-02-14T07:13:42;102033.41;;;9.17;58.28
34124;BME280;13153;52.316;21.166;2023-02-14T07:16:09;102036.84;;;9.16;57.97
34124;BME280;13153;52.316;21.166;2023-02-14T07:18:35;102048.34;;;9.18;58.74
34124;BME280;13153;52.316;21.166;2023-02-14T07:21:01;102045.81;;;9.20;58.83
34124;BME280;13153;52.316;21.166;2023-02-14T07:23:26;102041.66;;;9.23;58.48
34124;BME280;13153;52.316;21.166;2023-02-14T07:25:54;102046.06;;;9.24;58.66
34124;BME280;13153;52.316;21.166;2023-02-14T07:28:20;102047.81;;;9.24;58.25
34124;BME280;13153;52.316;21.166;2023-02-14T07:30:46;102061.00;;;9.25;58.75
34124;BME280;13153;52.316;21.166;2023-02-14T07:33:12;102056.75;;;9.27;58.51
34124;BME280;13153;52.316;21.166;2023-02-14T07:35:37;102063.81;;;9.28;58.93
34124;BME280;13153;52.316;21.166;2023-02-14T07:38:03;102064.72;;;9.29;58.38
34124;BME280;13153;52.316;21.166;2023-02-14T07:40:29;102069.16;;;9.30;58.46
34124;BME280;13153;52.316;21.166;2023-02-14T07:42:57;102078.28;;;9.37;58.29
34124;BME280;13153;52.316;21.166;2023-02-14T07:45:24;102073.94;;;9.37;57.66
34124;BME280;13153;52.316;21.166;2023-02-14T07:47:53;102087.25;;;9.40;57.91
34124;BME280;13153;52.316;21.166;2023-02-14T07:50:21;102082.91;;;9.41;58.04
34124;BME280;13153;52.316;21.166;2023-02-14T07:52:48;102077.84;;;9.44;58.01
34124;BME280;13153;52.316;21.166;2023-02-14T07:55:14;102074.84;;;9.52;57.68
34124;BME280;13153;52.316;21.166;2023-02-14T07:57:40;102085.34;;;9.52;57.77
34124;BME280;13153;52.316;21.166;2023-02-14T08:00:07;102094.06;;;9.51;57.34
34124;BME280;13153;52.316;21.166;2023-02-14T08:02:33;102081.72;;;9.50;57.44
34124;BME280;13153;52.316;21.166;2023-02-14T08:05:00;102096.41;;;9.47;58.19
34124;BME280;13153;52.316;21.166;2023-02-14T08:07:26;102101.75;;;9.48;58.15
34124;BME280;13153;52.316;21.166;2023-02-14T08:09:51;102097.59;;;9.52;57.76
34124;BME280;13153;52.316;21.166;2023-02-14T08:12:17;102101.22;;;9.54;57.77
34124;BME280;13153;52.316;21.166;2023-02-14T08:15:02;102096.78;;;9.53;57.86
34124;BME280;13153;52.316;21.166;2023-02-14T08:17:47;102096.03;;;9.55;57.90
34124;BME280;13153;52.316;21.166;2023-02-14T08:20:13;102100.66;;;9.59;57.78
34124;BME280;13153;52.316;21.166;2023-02-14T08:22:39;102097.22;;;9.60;57.87
34124;BME280;13153;52.316;21.166;2023-02-14T08:25:05;102103.72;;;9.67;57.55
34124;BME280;13153;52.316;21.166;2023-02-14T08:27:31;102102.72;;;9.65;57.31
34124;BME280;13153;52.316;21.166;2023-02-14T08:29:56;102102.81;;;9.67;58.09
34124;BME280;13153;52.316;21.166;2023-02-14T08:32:22;102102.47;;;9.60;57.42
34124;BME280;13153;52.316;21.166;2023-02-14T08:34:48;102115.53;;;9.59;57.48
34124;BME280;13153;52.316;21.166;2023-02-14T08:37:14;102106.00;;;9.61;57.82
34124;BME280;13153;52.316;21.166;2023-02-14T08:39:40;102108.81;;;9.64;57.97
34124;BME280;13153;52.316;21.166;2023-02-14T08:42:05;102105.72;;;9.71;57.82
34124;BME280;13153;52.316;21.166;2023-02-14T08:44:31;102108.53;;;9.74;57.31
34124;BME280;13153;52.316;21.166;2023-02-14T08:46:57;102112.06;;;9.75;57.21
34124;BME280;13153;52.316;21.166;2023-02-14T08:49:23;102110.44;;;9.77;57.45
34124;BME280;13153;52.316;21.166;2023-02-14T08:51:49;102117.59;;;9.79;57.60
34124;BME280;13153;52.316;21.166;2023-02-14T08:54:15;102112.56;;;9.84;56.97
34124;BME280;13153;52.316;21.166;2023-02-14T08:56:40;102113.31;;;9.81;56.97
34124;BME280;13153;52.316;21.166;2023-02-14T08:59:06;102116.91;;;9.83;56.80
34124;BME280;13153;52.316;21.166;2023-02-14T09:01:32;102112.00;;;9.89;57.15
34124;BME280;13153;52.316;21.166;2023-02-14T09:03:58;102117.59;;;9.96;57.21
34124;BME280;13153;52.316;21.166;2023-02-14T09:06:24;102116.31;;;10.04;57.04
34124;BME280;13153;52.316;21.166;2023-02-14T09:08:50;102114.84;;;10.09;56.68
34124;BME280;13153;52.316;21.166;2023-02-14T09:11:21;102118.72;;;10.15;56.63
34124;BME280;13153;52.316;21.166;2023-02-14T09:13:50;102110.03;;;10.16;56.54
34124;BME280;13153;52.316;21.166;2023-02-14T09:16:17;102116.41;;;10.20;56.23
34124;BME280;13153;52.316;21.166;2023-02-14T09:18:44;102118.22;;;10.21;56.04
34124;BME280;13153;52.316;21.166;2023-02-14T09:21:22;102121.84;;;10.23;56.24
34124;BME280;13153;52.316;21.166;2023-02-14T09:23:48;102119.53;;;10.29;56.08
34124;BME280;13153;52.316;21.166;2023-02-14T09:26:15;102117.72;;;10.28;55.80
34124;BME280;13153;52.316;21.166;2023-02-14T09:28:41;102125.28;;;10.22;56.22
34124;BME280;13153;52.316;21.166;2023-02-14T09:31:22;102121.84;;;10.23;55.85
34124;BME280;13153;52.316;21.166;2023-02-14T09:33:50;102122.72;;;10.23;56.01
34124;BME280;13153;52.316;21.166;2023-02-14T09:36:16;102124.38;;;10.21;56.18
34124;BME280;13153;52.316;21.166;2023-02-14T09:38:42;102137.69;;;10.24;55.94
34124;BME280;13153;52.316;21.166;2023-02-14T09:41:31;102124.81;;;10.29;56.43
34124;BME280;13153;52.316;21.166;2023-02-14T09:44:07;102128.25;;;10.28;55.94
34124;BME280;13153;52.316;21.166;2023-02-14T09:46:44;102126.88;;;10.35;56.26
34124;BME280;13153;52.316;21.166;2023-02-14T09:49:17;102130.56;;;10.38;55.99
34124;BME280;13153;52.316;21.166;2023-02-14T09:51:51;102128.03;;;10.40;55.92
34124;BME280;13153;52.316;21.166;2023-02-14T09:54:26;102120.53;;;10.47;56.09
34124;BME280;13153;52.316;21.166;2023-02-14T09:57:10;102120.03;;;10.54;55.83
34124;BME280;13153;52.316;21.166;2023-02-14T09:59:54;102127.63;;;10.65;55.44
34124;BME280;13153;52.316;21.166;2023-02-14T10:03:02;102128.44;;;10.64;55.28
34124;BME280;13153;52.316;21.166;2023-02-14T10:11:10;102132.38;;;10.72;55.29
34124;BME280;13153;52.316;21.166;2023-02-14T10:14:00;102123.84;;;10.76;55.30
34124;BME280;13153;52.316;21.166;2023-02-14T10:16:40;102116.09;;;10.79;55.17
34124;BME280;13153;52.316;21.166;2023-02-14T10:21:51;102120.53;;;10.80;54.83
34124;BME280;13153;52.316;21.166;2023-02-14T10:27:31;102124.97;;;10.81;55.09
34124;BME280;13153;52.316;21.166;2023-02-14T10:29:58;102130.91;;;10.77;54.96
34124;BME280;13153;52.316;21.166;2023-02-14T10:32:55;102120.88;;;10.70;54.85
34124;BME280;13153;52.316;21.166;2023-02-14T10:35:50;102128.44;;;10.64;54.88
34124;BME280;13153;52.316;21.166;2023-02-14T10:38:49;102127.38;;;10.60;55.05
34124;BME280;13153;52.316;21.166;2023-02-14T10:47:18;102126.78;;;10.66;55.28
34124;BME280;13153;52.316;21.166;2023-02-14T10:50:10;102131.31;;;10.68;55.17
34124;BME280;13153;52.316;21.166;2023-02-14T10:55:50;102122.75;;;10.72;54.88
34124;BME280;13153;52.316;21.166;2023-02-14T10:58:21;102118.47;;;10.74;54.59
34124;BME280;13153;52.316;21.166;2023-02-14T11:01:15;102126.31;;;10.73;54.83
34124;BME280;13153;52.316;21.166;2023-02-14T11:03:57;102125.63;;;10.61;54.83
34124;BME280;13153;52.316;21.166;2023-02-14T11:06:31;102130.06;;;10.62;55.25
34124;BME280;13153;52.316;21.166;2023-02-14T11:08:57;102123.91;;;10.61;54.74
34124;BME280;13153;52.316;21.166;2023-02-14T11:11:53;102126.31;;;10.73;54.87
34124;BME280;13153;52.316;21.166;2023-02-14T11:14:31;102124.31;;;10.85;55.82
34124;BME280;13153;52.316;21.166;2023-02-14T11:16:59;102121.03;;;10.89;55.01
34124;BME280;13153;52.316;21.166;2023-02-14T11:19:33;102116.84;;;10.93;54.88
34124;BME280;13153;52.316;21.166;2023-02-14T11:22:00;102123.00;;;10.93;54.56
34124;BME280;13153;52.316;21.166;2023-02-14T11:24:32;102120.66;;;10.99;54.14
34124;BME280;13153;52.316;21.166;2023-02-14T11:29:47;102124.13;;;10.98;54.25
34124;BME280;13153;52.316;21.166;2023-02-14T11:32:26;102107.38;;;10.96;54.27
34124;BME280;13153;52.316;21.166;2023-02-14T11:35:05;102126.75;;;10.98;54.32
34124;BME280;13153;52.316;21.166;2023-02-14T11:37:48;102115.28;;;10.96;54.38
34124;BME280;13153;52.316;21.166;2023-02-14T11:40:36;102117.81;;;10.95;54.17
34124;BME280;13153;52.316;21.166;2023-02-14T11:45:43;102107.13;;;10.91;54.07
34124;BME280;13153;52.316;21.166;2023-02-14T11:51:13;102095.94;;;10.96;54.14
34124;BME280;13153;52.316;21.166;2023-02-14T11:53:55;102099.06;;;10.88;54.10
34124;BME280;13153;52.316;21.166;2023-02-14T11:56:22;102092.97;;;10.89;54.42
34124;BME280;13153;52.316;21.166;2023-02-14T11:58:58;102099.31;;;10.93;54.51
34124;BME280;13153;52.316;21.166;2023-02-14T12:01:36;102098.47;;;10.94;54.20
34124;BME280;13153;52.316;21.166;2023-02-14T12:04:16;102093.38;;;10.97;53.91
34124;BME280;13153;52.316;21.166;2023-02-14T12:06:45;102091.09;;;11.05;54.17
34124;BME280;13153;52.316;21.166;2023-02-14T12:11:59;102091.31;;;11.25;53.94
34124;BME280;13153;52.316;21.166;2023-02-14T12:14:34;102082.88;;;11.33;53.60
34124;BME280;13153;52.316;21.166;2023-02-14T12:17:02;102076.94;;;11.37;53.46
34124;BME280;13153;52.316;21.166;2023-02-14T12:19:52;102079.16;;;11.45;53.67
34124;BME280;13153;52.316;21.166;2023-02-14T12:22:36;102082.09;;;11.51;53.65
34124;BME280;13153;52.316;21.166;2023-02-14T12:25:14;102079.53;;;11.53;53.03
34124;BME280;13153;52.316;21.166;2023-02-14T12:27:59;102075.25;;;11.55;53.18
34124;BME280;13153;52.316;21.166;2023-02-14T12:30:31;102081.53;;;11.58;52.91
34124;BME280;13153;52.316;21.166;2023-02-14T12:32:57;102073.69;;;11.60;52.90
34124;BME280;13153;52.316;21.166;2023-02-14T12:39:18;102073.84;;;11.63;52.90
34124;BME280;13153;52.316;21.166;2023-02-14T13:00:19;102059.00;;;11.65;53.10
34124;BME280;13153;52.316;21.166;2023-02-14T13:09:10;102058.94;;;11.64;53.18
34124;BME280;13153;52.316;21.166;2023-02-14T13:23:46;102067.38;;;11.74;53.18
34124;BME280;13153;52.316;21.166;2023-02-14T13:26:28;102065.56;;;11.73;52.87
34124;BME280;13153;52.316;21.166;2023-02-14T13:29:09;102074.22;;;11.71;52.98
34124;BME280;13153;52.316;21.166;2023-02-14T13:31:38;102069.78;;;11.70;53.06
34124;BME280;13153;52.316;21.166;2023-02-14T13:34:29;102073.41;;;11.72;52.92
34124;BME280;13153;52.316;21.166;2023-02-14T13:37:01;102070.00;;;11.74;53.07
34124;BME280;13153;52.316;21.166;2023-02-14T13:39:37;102069.19;;;11.75;52.99
34124;BME280;13153;52.316;21.166;2023-02-14T13:42:05;102075.47;;;11.77;53.02
34124;BME280;13153;52.316;21.166;2023-02-14T13:44:49;102076.09;;;11.73;52.98
34124;BME280;13153;52.316;21.166;2023-02-14T13:47:25;102070.84;;;11.73;53.16
34124;BME280;13153;52.316;21.166;2023-02-14T13:50:00;102066.38;;;11.72;53.19
34124;BME280;13153;52.316;21.166;2023-02-14T13:52:46;102069.84;;;11.71;52.83
34124;BME280;13153;52.316;21.166;2023-02-14T13:55:23;102066.31;;;11.71;52.89
34124;BME280;13153;52.316;21.166;2023-02-14T13:58:17;102060.00;;;11.67;53.31
34124;BME280;13153;52.316;21.166;2023-02-14T14:00:45;102068.03;;;11.70;53.58
34124;BME280;13153;52.316;21.166;2023-02-14T14:10:54;102057.28;;;11.66;53.48
34124;BME280;13153;52.316;21.166;2023-02-14T14:19:01;102053.59;;;11.62;53.29
34124;BME280;13153;52.316;21.166;2023-02-14T14:21:33;102048.31;;;11.62;53.32
34124;BME280;13153;52.316;21.166;2023-02-14T14:24:22;102057.13;;;11.63;53.35
34124;BME280;13153;52.316;21.166;2023-02-14T14:27:16;102054.50;;;11.63;53.41
34124;BME280;13153;52.316;21.166;2023-02-14T14:29:52;102052.34;;;11.54;53.53
34124;BME280;13153;52.316;21.166;2023-02-14T14:32:27;102060.03;;;11.49;53.73
34124;BME280;13153;52.316;21.166;2023-02-14T14:35:01;102056.16;;;11.43;53.65
34124;BME280;13153;52.316;21.166;2023-02-14T14:37:34;102058.56;;;11.38;53.89
34124;BME280;13153;52.316;21.166;2023-02-14T14:40:04;102057.66;;;11.38;54.03
34124;BME280;13153;52.316;21.166;2023-02-14T14:42:37;102061.97;;;11.36;54.39
34124;BME280;13153;52.316;21.166;2023-02-14T14:45:22;102061.97;;;11.36;54.47
34124;BME280;13153;52.316;21.166;2023-02-14T14:47:53;102065.44;;;11.35;54.37
34124;BME280;13153;52.316;21.166;2023-02-14T14:50:32;102071.53;;;11.34;54.49
34124;BME280;13153;52.316;21.166;2023-02-14T14:53:08;102066.91;;;11.30;54.85
34124;BME280;13153;52.316;21.166;2023-02-14T14:55:44;102072.19;;;11.30;54.57
34124;BME280;13153;52.316;21.166;2023-02-14T14:58:46;102064.88;;;11.24;54.60
34124;BME280;13153;52.316;21.166;2023-02-14T15:01:37;102061.03;;;11.17;54.84
34124;BME280;13153;52.316;21.166;2023-02-14T15:04:15;102059.72;;;11.09;54.99
34124;BME280;13153;52.316;21.166;2023-02-14T15:06:41;102054.22;;;11.05;54.99
34124;BME280;13153;52.316;21.166;2023-02-14T15:11:50;102065.34;;;10.99;55.07
34124;BME280;13153;52.316;21.166;2023-02-14T15:14:43;102069.59;;;10.96;55.42
34124;BME280;13153;52.316;21.166;2023-02-14T15:17:28;102066.88;;;10.94;55.15
34124;BME280;13153;52.316;21.166;2023-02-14T15:20:01;102064.91;;;10.90;55.66
34124;BME280;13153;52.316;21.166;2023-02-14T15:22:43;102066.47;;;10.86;55.47
34124;BME280;13153;52.316;21.166;2023-02-14T15:25:21;102069.78;;;10.82;55.91